createdAt,value
2023-07-18T00:00:41.622Z,953.2
2023-07-18T00:01:46.030Z,953.2
2023-07-18T00:02:50.752Z,953.2
2023-07-18T00:03:52.960Z,953.2
2023-07-18T00:04:54.821Z,953.1
2023-07-18T00:05:56.522Z,953.1
2023-07-18T00:06:58.272Z,953.1
2023-07-18T00:08:00.001Z,953.1
2023-07-18T00:09:01.994Z,953.1
2023-07-18T00:10:03.777Z,953
2023-07-18T00:11:05.563Z,953.1
2023-07-18T00:12:07.791Z,953.1
2023-07-18T00:13:09.569Z,953.1
2023-07-18T00:14:11.295Z,953.1
2023-07-18T00:15:13.007Z,953.1
2023-07-18T00:16:14.783Z,953.1
2023-07-18T00:17:16.708Z,953.1
2023-07-18T00:18:18.424Z,953.1
2023-07-18T00:19:20.464Z,953.1
2023-07-18T00:20:22.195Z,953.2
2023-07-18T00:21:23.881Z,953.1
2023-07-18T00:22:29.163Z,953.1
2023-07-18T00:23:30.999Z,953
2023-07-18T00:24:32.681Z,953
2023-07-18T00:25:34.762Z,953
2023-07-18T00:26:36.914Z,952.9
2023-07-18T00:27:38.804Z,952.9
2023-07-18T00:28:40.629Z,953
2023-07-18T00:29:42.315Z,953
2023-07-18T00:30:44.059Z,952.9
2023-07-18T00:31:46.139Z,953
2023-07-18T00:32:48.099Z,952.9
2023-07-18T00:33:50.056Z,952.9
2023-07-18T00:34:51.769Z,952.9
2023-07-18T00:35:53.503Z,952.9
2023-07-18T00:36:55.195Z,953
2023-07-18T00:37:56.886Z,952.9
2023-07-18T00:38:58.555Z,952.9
2023-07-18T00:40:00.314Z,952.9
2023-07-18T00:41:02.412Z,952.9
2023-07-18T00:42:04.481Z,952.9
2023-07-18T00:43:06.289Z,952.9
2023-07-18T00:44:08.134Z,952.9
2023-07-18T00:45:09.924Z,952.9
2023-07-18T00:46:14.719Z,952.9
2023-07-18T00:47:16.458Z,952.8
2023-07-18T00:48:18.172Z,952.8
2023-07-18T00:49:19.920Z,952.7
2023-07-18T00:50:21.632Z,952.8
2023-07-18T00:51:23.318Z,952.7
2023-07-18T00:52:25.058Z,952.8
2023-07-18T00:53:26.792Z,952.8
2023-07-18T00:54:28.471Z,952.8
2023-07-18T00:55:30.303Z,952.8
2023-07-18T00:56:32.082Z,952.7
2023-07-18T00:57:33.777Z,952.7
2023-07-18T00:58:35.548Z,952.7
2023-07-18T00:59:37.294Z,952.7
2023-07-18T01:00:38.992Z,952.7
2023-07-18T01:01:40.921Z,952.7
2023-07-18T01:02:43.641Z,952.7
2023-07-18T01:03:45.957Z,952.7
2023-07-18T01:04:47.911Z,952.6
2023-07-18T01:05:49.750Z,952.6
2023-07-18T01:06:51.793Z,952.6
2023-07-18T01:07:53.698Z,952.6
2023-07-18T01:08:55.416Z,952.6
2023-07-18T01:09:57.101Z,952.6
2023-07-18T01:10:58.873Z,952.6
2023-07-18T01:12:00.751Z,952.7
2023-07-18T01:13:02.642Z,952.6
2023-07-18T01:14:04.399Z,952.7
2023-07-18T01:15:06.128Z,952.7
2023-07-18T01:16:08.146Z,952.7
2023-07-18T01:17:10.035Z,952.6
2023-07-18T01:18:11.754Z,952.7
2023-07-18T01:19:13.440Z,952.6
2023-07-18T01:20:18.094Z,952.7
2023-07-18T01:21:20.930Z,952.7
2023-07-18T01:22:23.145Z,952.7
2023-07-18T01:23:25.104Z,952.7
2023-07-18T01:24:26.795Z,952.7
2023-07-18T01:25:28.553Z,952.7
2023-07-18T01:26:30.280Z,952.7
2023-07-18T01:27:32.095Z,952.6
2023-07-18T01:28:33.808Z,952.6
2023-07-18T01:29:35.654Z,952.6
2023-07-18T01:30:40.321Z,952.6
2023-07-18T01:31:42.583Z,952.7
2023-07-18T01:32:44.612Z,952.7
2023-07-18T01:33:46.350Z,952.7
2023-07-18T01:34:48.074Z,952.7
2023-07-18T01:35:49.868Z,952.7
2023-07-18T01:36:51.724Z,952.7
2023-07-18T01:37:53.445Z,952.6
2023-07-18T01:38:55.239Z,952.7
2023-07-18T01:39:57.002Z,952.7
2023-07-18T01:40:58.833Z,952.7
2023-07-18T01:42:00.640Z,952.7
2023-07-18T01:43:02.511Z,952.7
2023-07-18T01:44:04.246Z,952.7
2023-07-18T01:45:06.354Z,952.7
2023-07-18T01:46:08.353Z,952.7
2023-07-18T01:47:10.160Z,952.8
2023-07-18T01:48:12.144Z,952.8
2023-07-18T01:49:13.924Z,952.8
2023-07-18T01:50:15.687Z,952.7
2023-07-18T01:51:18.561Z,952.8
2023-07-18T01:52:21.026Z,952.7
2023-07-18T01:53:22.749Z,952.8
2023-07-18T01:54:24.428Z,952.8
2023-07-18T01:55:26.256Z,952.8
2023-07-18T01:56:27.967Z,952.8
2023-07-18T01:57:29.723Z,952.8
2023-07-18T01:58:31.475Z,952.8
2023-07-18T01:59:33.160Z,952.8
2023-07-18T02:00:35.082Z,952.7
2023-07-18T02:01:37.068Z,952.8
2023-07-18T02:02:39.448Z,952.7
2023-07-18T02:03:41.270Z,952.7
2023-07-18T02:04:43.077Z,952.7
2023-07-18T02:05:44.887Z,952.7
2023-07-18T02:06:46.633Z,952.6
2023-07-18T02:07:48.506Z,952.7
2023-07-18T02:08:50.289Z,952.7
2023-07-18T02:09:52.068Z,952.7
2023-07-18T02:10:53.777Z,952.7
2023-07-18T02:11:55.472Z,952.6
2023-07-18T02:12:57.297Z,952.6
2023-07-18T02:13:59.229Z,952.7
2023-07-18T02:15:00.995Z,952.6
2023-07-18T02:16:02.761Z,952.6
2023-07-18T02:17:04.797Z,952.6
2023-07-18T02:18:06.742Z,952.7
2023-07-18T02:19:08.615Z,952.7
2023-07-18T02:20:10.397Z,952.7
2023-07-18T02:21:12.129Z,952.7
2023-07-18T02:22:13.816Z,952.7
2023-07-18T02:23:16.225Z,952.7
2023-07-18T02:24:18.066Z,952.8
2023-07-18T02:25:22.824Z,952.7
2023-07-18T02:26:24.504Z,952.8
2023-07-18T02:27:26.218Z,952.7
2023-07-18T02:28:27.918Z,952.7
2023-07-18T02:29:29.653Z,952.7
2023-07-18T02:30:31.408Z,952.8
2023-07-18T02:31:33.369Z,952.7
2023-07-18T02:32:35.519Z,952.7
2023-07-18T02:33:37.362Z,952.7
2023-07-18T02:34:39.045Z,952.7
2023-07-18T02:35:40.809Z,952.7
2023-07-18T02:36:42.518Z,952.8
2023-07-18T02:37:44.276Z,952.8
2023-07-18T02:38:45.964Z,952.8
2023-07-18T02:39:47.693Z,952.9
2023-07-18T02:40:49.385Z,952.9
2023-07-18T02:41:54.086Z,952.9
2023-07-18T02:42:55.810Z,952.9
2023-07-18T02:43:57.514Z,952.9
2023-07-18T02:44:59.383Z,952.9
2023-07-18T02:46:01.196Z,952.9
2023-07-18T02:47:02.996Z,952.9
2023-07-18T02:48:05.010Z,952.9
2023-07-18T02:49:06.932Z,952.9
2023-07-18T02:50:08.626Z,952.9
2023-07-18T02:51:10.367Z,952.8
2023-07-18T02:52:12.047Z,952.9
2023-07-18T02:53:13.788Z,952.9
2023-07-18T02:54:15.516Z,952.8
2023-07-18T02:55:17.280Z,952.8
2023-07-18T02:56:18.981Z,952.8
2023-07-18T02:57:20.986Z,952.8
2023-07-18T02:58:22.806Z,952.8
2023-07-18T02:59:24.599Z,952.8
2023-07-18T03:00:26.362Z,952.8
2023-07-18T03:01:28.555Z,952.9
2023-07-18T03:02:30.959Z,952.9
2023-07-18T03:03:33.270Z,952.9
2023-07-18T03:04:35.271Z,952.9
2023-07-18T03:05:37.096Z,952.9
2023-07-18T03:06:38.776Z,952.9
2023-07-18T03:07:40.481Z,952.9
2023-07-18T03:08:42.215Z,952.9
2023-07-18T03:09:44.846Z,952.9
2023-07-18T03:10:46.592Z,952.9
2023-07-18T03:11:49.254Z,952.9
2023-07-18T03:12:52.033Z,952.9
2023-07-18T03:13:53.727Z,952.9
2023-07-18T03:14:55.468Z,952.9
2023-07-18T03:15:57.197Z,952.9
2023-07-18T03:16:58.994Z,952.9
2023-07-18T03:18:01.216Z,952.9
2023-07-18T03:19:03.033Z,953
2023-07-18T03:20:04.877Z,952.9
2023-07-18T03:21:06.591Z,952.9
2023-07-18T03:22:08.404Z,952.9
2023-07-18T03:23:10.529Z,953
2023-07-18T03:24:12.660Z,953
2023-07-18T03:25:14.859Z,953
2023-07-18T03:26:16.909Z,953
2023-07-18T03:27:18.673Z,953
2023-07-18T03:28:20.369Z,953
2023-07-18T03:29:22.153Z,953
2023-07-18T03:30:23.868Z,953
2023-07-18T03:31:26.066Z,953
2023-07-18T03:32:28.018Z,953
2023-07-18T03:33:29.918Z,953
2023-07-18T03:34:31.690Z,953
2023-07-18T03:35:33.392Z,953
2023-07-18T03:36:35.190Z,953
2023-07-18T03:37:39.287Z,953
2023-07-18T03:38:40.989Z,953
2023-07-18T03:39:42.697Z,953
2023-07-18T03:40:44.472Z,953.1
2023-07-18T03:41:46.858Z,953
2023-07-18T03:42:48.638Z,953.1
2023-07-18T03:43:50.394Z,953
2023-07-18T03:44:52.075Z,953.1
2023-07-18T03:45:56.783Z,953.1
2023-07-18T03:47:24.325Z,953.1
2023-07-18T03:48:26.222Z,953.1
2023-07-18T03:49:28.036Z,953.1
2023-07-18T03:50:30.026Z,953.2
2023-07-18T03:51:38.177Z,953.2
2023-07-18T03:52:40.036Z,953.2
2023-07-18T03:53:41.746Z,953.2
2023-07-18T03:54:43.463Z,953.3
2023-07-18T03:55:45.185Z,953.3
2023-07-18T03:56:46.921Z,953.3
2023-07-18T03:57:48.613Z,953.3
2023-07-18T03:58:52.825Z,953.3
2023-07-18T03:59:54.600Z,953.4
2023-07-18T04:00:56.269Z,953.4
2023-07-18T04:01:58.435Z,953.4
2023-07-18T04:03:00.780Z,953.4
2023-07-18T04:04:03.259Z,953.4
2023-07-18T04:05:05.132Z,953.4
2023-07-18T04:06:07.010Z,953.4
2023-07-18T04:07:08.761Z,953.4
2023-07-18T04:08:10.762Z,953.4
2023-07-18T04:09:12.507Z,953.5
2023-07-18T04:10:16.980Z,953.5
2023-07-18T04:11:20.105Z,953.5
2023-07-18T04:12:22.506Z,953.5
2023-07-18T04:13:24.200Z,953.4
2023-07-18T04:14:26.009Z,953.4
2023-07-18T04:15:27.731Z,953.4
2023-07-18T04:16:32.159Z,953.4
2023-07-18T04:17:35.093Z,953.4
2023-07-18T04:18:37.038Z,953.4
2023-07-18T04:19:38.842Z,953.4
2023-07-18T04:20:40.567Z,953.4
2023-07-18T04:21:42.407Z,953.4
2023-07-18T04:22:47.439Z,953.4
2023-07-18T04:23:49.331Z,953.4
2023-07-18T04:24:51.053Z,953.4
2023-07-18T04:25:52.745Z,953.4
2023-07-18T04:26:54.492Z,953.4
2023-07-18T04:27:56.288Z,953.4
2023-07-18T04:28:57.966Z,953.4
2023-07-18T04:29:59.686Z,953.4
2023-07-18T04:31:01.692Z,953.4
2023-07-18T04:32:03.655Z,953.3
2023-07-18T04:33:05.709Z,953.3
2023-07-18T04:34:07.973Z,953.3
2023-07-18T04:35:09.711Z,953.3
2023-07-18T04:36:11.526Z,953.3
2023-07-18T04:37:13.283Z,953.3
2023-07-18T04:38:15.118Z,953.3
2023-07-18T04:39:16.842Z,953.3
2023-07-18T04:40:18.601Z,953.2
2023-07-18T04:41:21.671Z,953.3
2023-07-18T04:42:24.170Z,953.2
2023-07-18T04:43:26.209Z,953.2
2023-07-18T04:44:28.030Z,953.3
2023-07-18T04:45:29.737Z,953.3
2023-07-18T04:46:31.713Z,953.2
2023-07-18T04:47:34.166Z,953.2
2023-07-18T04:48:36.173Z,953.3
2023-07-18T04:49:38.076Z,953.2
2023-07-18T04:50:39.862Z,953.2
2023-07-18T04:51:41.666Z,953.2
2023-07-18T04:52:43.500Z,953.2
2023-07-18T04:53:45.254Z,953.2
2023-07-18T04:54:47.004Z,953.2
2023-07-18T04:55:48.801Z,953.1
2023-07-18T04:56:50.502Z,953.1
2023-07-18T04:57:52.331Z,953.1
2023-07-18T04:58:54.252Z,953.1
2023-07-18T04:59:56.039Z,953.1
2023-07-18T05:00:57.899Z,953.1
2023-07-18T05:02:00.185Z,953.1
2023-07-18T05:03:02.454Z,953.1
2023-07-18T05:04:04.911Z,953.1
2023-07-18T05:05:06.762Z,953.1
2023-07-18T05:06:08.470Z,953.1
2023-07-18T05:07:10.367Z,953.1
2023-07-18T05:08:12.098Z,953.1
2023-07-18T05:09:13.829Z,953.1
2023-07-18T05:10:15.607Z,953.1
2023-07-18T05:11:18.936Z,953.1
2023-07-18T05:12:21.370Z,953.1
2023-07-18T05:13:23.173Z,953.1
2023-07-18T05:14:24.934Z,953.1
2023-07-18T05:15:26.606Z,953.1
2023-07-18T05:16:28.472Z,953.2
2023-07-18T05:17:30.454Z,953.1
2023-07-18T05:18:32.458Z,953.1
2023-07-18T05:19:34.192Z,953.1
2023-07-18T05:20:35.942Z,953.1
2023-07-18T05:21:37.647Z,953.1
2023-07-18T05:22:39.528Z,953.1
2023-07-18T05:23:41.328Z,953.1
2023-07-18T05:24:43.089Z,953.1
2023-07-18T05:25:44.856Z,953.1
2023-07-18T05:26:46.643Z,953.1
2023-07-18T05:27:48.411Z,953.1
2023-07-18T05:28:50.127Z,953.1
2023-07-18T05:29:51.784Z,953.1
2023-07-18T05:30:53.472Z,953.2
2023-07-18T05:31:55.541Z,953.2
2023-07-18T05:32:57.611Z,953.2
2023-07-18T05:33:59.575Z,953.1
2023-07-18T05:35:01.322Z,953.1
2023-07-18T05:36:03.230Z,953.1
2023-07-18T05:37:05.017Z,953.2
2023-07-18T05:38:07.091Z,953.2
2023-07-18T05:39:08.951Z,953.2
2023-07-18T05:40:13.670Z,953.2
2023-07-18T05:41:15.363Z,953.2
2023-07-18T05:42:17.115Z,953.2
2023-07-18T05:43:18.774Z,953.1
2023-07-18T05:44:20.480Z,953.1
2023-07-18T05:45:22.212Z,953.2
2023-07-18T05:46:24.129Z,953.2
2023-07-18T05:47:26.364Z,953.2
2023-07-18T05:48:28.429Z,953.2
2023-07-18T05:49:30.126Z,953.2
2023-07-18T05:50:31.851Z,953.2
2023-07-18T05:51:33.697Z,953.2
2023-07-18T05:52:35.411Z,953.2
2023-07-18T05:53:37.273Z,953.2
2023-07-18T05:54:40.557Z,953.2
2023-07-18T05:55:42.619Z,953.2
2023-07-18T05:56:44.421Z,953.2
2023-07-18T05:57:46.137Z,953.2
2023-07-18T05:58:47.846Z,953.1
2023-07-18T05:59:49.722Z,953.2
2023-07-18T06:00:51.595Z,953.2
2023-07-18T06:01:53.589Z,953.1
2023-07-18T06:02:59.425Z,953.1
2023-07-18T06:04:04.937Z,953.1
2023-07-18T06:05:06.772Z,953.1
2023-07-18T06:06:08.486Z,953.1
2023-07-18T06:07:10.267Z,953.1
2023-07-18T06:08:12.045Z,953.1
2023-07-18T06:09:13.767Z,953.1
2023-07-18T06:10:15.511Z,953.2
2023-07-18T06:11:18.153Z,953.2
2023-07-18T06:12:20.673Z,953.1
2023-07-18T06:13:22.466Z,953.1
2023-07-18T06:14:24.169Z,953.1
2023-07-18T06:15:25.932Z,953.1
2023-07-18T06:16:27.826Z,953.1
2023-07-18T06:17:29.786Z,953.1
2023-07-18T06:18:31.648Z,953.1
2023-07-18T06:19:33.373Z,953.1
2023-07-18T06:20:35.119Z,953.1
2023-07-18T06:21:37.035Z,953.1
2023-07-18T06:22:39.067Z,953.1
2023-07-18T06:23:48.007Z,953.1
2023-07-18T06:24:49.812Z,953.1
2023-07-18T06:25:51.541Z,953.1
2023-07-18T06:26:53.362Z,953.1
2023-07-18T06:27:55.121Z,953.1
2023-07-18T06:28:56.849Z,953.1
2023-07-18T06:29:58.594Z,953.1
2023-07-18T06:31:00.433Z,953.1
2023-07-18T06:32:02.463Z,953
2023-07-18T06:33:04.578Z,953.1
2023-07-18T06:34:06.379Z,953.1
2023-07-18T06:35:24.469Z,953.1
2023-07-18T06:36:26.390Z,953
2023-07-18T06:37:28.284Z,953
2023-07-18T06:38:30.095Z,953
2023-07-18T06:39:31.881Z,953.1
2023-07-18T06:40:33.734Z,953
2023-07-18T06:41:35.524Z,953
2023-07-18T06:42:37.301Z,953
2023-07-18T06:43:39.020Z,953
2023-07-18T06:44:40.766Z,953.1
2023-07-18T06:45:42.508Z,953.1
2023-07-18T06:46:45.058Z,953.1
2023-07-18T06:47:47.640Z,953
2023-07-18T06:48:49.544Z,953
2023-07-18T06:49:51.254Z,953.1
2023-07-18T06:50:52.990Z,953.1
2023-07-18T06:51:54.740Z,953.1
2023-07-18T06:52:56.479Z,953.1
2023-07-18T06:53:58.523Z,953
2023-07-18T06:55:00.257Z,953.1
2023-07-18T06:56:02.260Z,953.1
2023-07-18T06:57:04.252Z,953.1
2023-07-18T06:58:05.979Z,953.1
2023-07-18T06:59:07.700Z,953.1
2023-07-18T07:00:09.435Z,953.1
2023-07-18T07:01:11.340Z,953.1
2023-07-18T07:02:13.566Z,953.1
2023-07-18T07:03:18.701Z,953.1
2023-07-18T07:04:21.114Z,953.1
2023-07-18T07:05:23.186Z,953.1
2023-07-18T07:06:24.950Z,953.1
2023-07-18T07:07:26.727Z,953.1
2023-07-18T07:08:28.755Z,953.1
2023-07-18T07:09:30.587Z,953.1
2023-07-18T07:10:32.289Z,953.1
2023-07-18T07:11:34.191Z,953.1
2023-07-18T07:12:38.424Z,953.1
2023-07-18T07:13:40.249Z,953.1
2023-07-18T07:14:42.091Z,953.1
2023-07-18T07:15:43.847Z,953.1
2023-07-18T07:16:45.827Z,953.2
2023-07-18T07:17:47.939Z,953.2
2023-07-18T07:18:49.876Z,953.2
2023-07-18T07:19:51.745Z,953.2
2023-07-18T07:20:53.598Z,953.1
2023-07-18T07:21:55.473Z,953.2
2023-07-18T07:22:57.329Z,953.1
2023-07-18T07:23:59.277Z,953.1
2023-07-18T07:25:01.445Z,953.1
2023-07-18T07:26:03.136Z,953.2
2023-07-18T07:27:04.897Z,953.1
2023-07-18T07:28:06.716Z,953.2
2023-07-18T07:29:08.807Z,953.1
2023-07-18T07:30:10.765Z,953.1
2023-07-18T07:31:12.732Z,953.2
2023-07-18T07:32:14.616Z,953.1
2023-07-18T07:33:19.702Z,953.1
2023-07-18T07:34:21.396Z,953.1
2023-07-18T07:35:23.109Z,953.1
2023-07-18T07:36:24.885Z,953.1
2023-07-18T07:37:26.660Z,953.1
2023-07-18T07:38:28.410Z,953.1
2023-07-18T07:39:30.191Z,953
2023-07-18T07:40:32.106Z,953.1
2023-07-18T07:41:34.092Z,953.1
2023-07-18T07:42:35.870Z,953.1
2023-07-18T07:43:37.874Z,953.1
2023-07-18T07:44:39.674Z,953.1
2023-07-18T07:45:41.382Z,953.1
2023-07-18T07:46:43.378Z,953
2023-07-18T07:47:48.377Z,953.1
2023-07-18T07:48:50.198Z,953.1
2023-07-18T07:49:51.951Z,953.1
2023-07-18T07:50:53.671Z,953
2023-07-18T07:51:55.369Z,953.1
2023-07-18T07:52:57.123Z,953.1
2023-07-18T07:53:58.841Z,953.1
2023-07-18T07:55:00.678Z,953.1
2023-07-18T07:56:02.766Z,953.1
2023-07-18T07:57:04.463Z,953.1
2023-07-18T07:58:06.175Z,953.1
2023-07-18T07:59:15.704Z,953.1
2023-07-18T08:00:17.590Z,953
2023-07-18T08:01:20.452Z,953
2023-07-18T08:02:23.218Z,953
2023-07-18T08:03:25.334Z,953
2023-07-18T08:04:27.705Z,953.1
2023-07-18T08:05:29.969Z,953
2023-07-18T08:06:31.985Z,953.1
2023-07-18T08:07:33.772Z,953
2023-07-18T08:08:35.495Z,953.1
2023-07-18T08:09:37.193Z,953
2023-07-18T08:10:38.895Z,953
2023-07-18T08:11:40.704Z,953
2023-07-18T08:12:42.453Z,953
2023-07-18T08:13:44.296Z,953
2023-07-18T08:14:46.320Z,953
2023-07-18T08:15:48.070Z,953
2023-07-18T08:16:49.985Z,953
2023-07-18T08:17:52.167Z,953
2023-07-18T08:18:53.980Z,952.9
2023-07-18T08:19:55.765Z,952.9
2023-07-18T08:20:57.531Z,953
2023-07-18T08:21:59.302Z,952.9
2023-07-18T08:23:01.320Z,952.9
2023-07-18T08:24:03.235Z,952.9
2023-07-18T08:25:05.090Z,952.9
2023-07-18T08:26:06.928Z,952.9
2023-07-18T08:27:08.840Z,952.9
2023-07-18T08:28:10.571Z,953
2023-07-18T08:29:12.443Z,953
2023-07-18T08:30:14.431Z,953
2023-07-18T08:31:16.159Z,953
2023-07-18T08:32:18.085Z,953
2023-07-18T08:33:19.897Z,953
2023-07-18T08:34:21.982Z,953
2023-07-18T08:35:23.778Z,953
2023-07-18T08:36:25.583Z,953
2023-07-18T08:37:27.304Z,953
2023-07-18T08:38:29.106Z,953
2023-07-18T08:39:30.780Z,953.1
2023-07-18T08:40:32.510Z,953.1
2023-07-18T08:41:34.252Z,953
2023-07-18T08:42:35.985Z,953
2023-07-18T08:43:37.773Z,953
2023-07-18T08:44:39.529Z,953
2023-07-18T08:45:41.311Z,953
2023-07-18T08:46:43.572Z,953
2023-07-18T08:47:45.979Z,952.9
2023-07-18T08:48:47.980Z,952.9
2023-07-18T08:49:49.747Z,952.9
2023-07-18T08:50:51.632Z,952.9
2023-07-18T08:51:53.322Z,952.9
2023-07-18T08:52:55.239Z,952.9
2023-07-18T08:53:57.135Z,952.9
2023-07-18T08:54:58.870Z,952.9
2023-07-18T08:56:01.091Z,952.9
2023-07-18T08:57:03.073Z,952.9
2023-07-18T08:58:04.821Z,952.9
2023-07-18T08:59:06.540Z,952.9
2023-07-18T09:00:08.363Z,952.8
2023-07-18T09:01:10.217Z,952.9
2023-07-18T09:02:12.568Z,952.9
2023-07-18T09:03:14.292Z,952.8
2023-07-18T09:04:16.524Z,952.8
2023-07-18T09:05:18.573Z,952.8
2023-07-18T09:06:20.361Z,952.8
2023-07-18T09:07:22.103Z,952.8
2023-07-18T09:08:23.809Z,952.8
2023-07-18T09:09:25.784Z,952.8
2023-07-18T09:10:27.612Z,952.8
2023-07-18T09:11:29.425Z,952.8
2023-07-18T09:12:31.183Z,952.8
2023-07-18T09:13:32.954Z,952.8
2023-07-18T09:14:34.705Z,952.8
2023-07-18T09:15:36.639Z,952.8
2023-07-18T09:16:38.642Z,952.7
2023-07-18T09:17:40.693Z,952.8
2023-07-18T09:18:42.467Z,952.8
2023-07-18T09:19:44.288Z,952.8
2023-07-18T09:20:46.086Z,952.8
2023-07-18T09:21:47.789Z,952.8
2023-07-18T09:22:49.579Z,952.8
2023-07-18T09:23:51.316Z,952.7
2023-07-18T09:24:58.097Z,952.8
2023-07-18T09:25:59.785Z,952.7
2023-07-18T09:27:01.513Z,952.7
2023-07-18T09:28:03.175Z,952.7
2023-07-18T09:29:05.067Z,952.7
2023-07-18T09:30:10.263Z,952.7
2023-07-18T09:31:12.239Z,952.7
2023-07-18T09:32:14.033Z,952.6
2023-07-18T09:33:15.819Z,952.7
2023-07-18T09:34:17.653Z,952.7
2023-07-18T09:35:19.423Z,952.7
2023-07-18T09:36:21.225Z,952.7
2023-07-18T09:37:22.960Z,952.7
2023-07-18T09:38:24.822Z,952.7
2023-07-18T09:39:26.533Z,952.6
2023-07-18T09:40:28.324Z,952.6
2023-07-18T09:41:30.177Z,952.7
2023-07-18T09:42:33.313Z,952.6
2023-07-18T09:43:37.124Z,952.6
2023-07-18T09:44:38.946Z,952.6
2023-07-18T09:45:40.799Z,952.6
2023-07-18T09:46:42.869Z,952.6
2023-07-18T09:47:44.818Z,952.6
2023-07-18T09:48:52.283Z,952.6
2023-07-18T09:49:54.195Z,952.5
2023-07-18T09:50:56.351Z,952.5
2023-07-18T09:51:58.119Z,952.5
2023-07-18T09:52:59.922Z,952.6
2023-07-18T09:54:06.105Z,952.5
2023-07-18T09:55:07.852Z,952.6
2023-07-18T09:56:09.542Z,952.6
2023-07-18T09:57:11.526Z,952.5
2023-07-18T09:58:13.417Z,952.5
2023-07-18T09:59:15.214Z,952.5
2023-07-18T10:00:20.096Z,952.5
2023-07-18T10:01:23.332Z,952.5
2023-07-18T10:02:25.590Z,952.5
2023-07-18T10:03:27.777Z,952.4
2023-07-18T10:04:29.801Z,952.5
2023-07-18T10:05:31.514Z,952.4
2023-07-18T10:06:33.329Z,952.4
2023-07-18T10:07:35.035Z,952.4
2023-07-18T10:08:36.727Z,952.4
2023-07-18T10:09:38.775Z,952.4
2023-07-18T10:10:40.499Z,952.4
2023-07-18T10:11:42.197Z,952.4
2023-07-18T10:12:43.925Z,952.4
2023-07-18T10:13:48.676Z,952.4
2023-07-18T10:14:50.401Z,952.4
2023-07-18T10:15:52.350Z,952.4
2023-07-18T10:16:54.661Z,952.4
2023-07-18T10:17:57.210Z,952.4
2023-07-18T10:18:59.342Z,952.4
2023-07-18T10:20:01.056Z,952.4
2023-07-18T10:21:02.812Z,952.4
2023-07-18T10:22:04.581Z,952.4
2023-07-18T10:23:06.578Z,952.5
2023-07-18T10:24:08.508Z,952.4
2023-07-18T10:25:10.318Z,952.4
2023-07-18T10:26:12.243Z,952.4
2023-07-18T10:27:13.946Z,952.4
2023-07-18T10:28:15.654Z,952.4
2023-07-18T10:29:17.330Z,952.4
2023-07-18T10:30:19.068Z,952.4
2023-07-18T10:31:21.953Z,952.3
2023-07-18T10:32:24.336Z,952.4
2023-07-18T10:33:26.523Z,952.4
2023-07-18T10:34:28.326Z,952.4
2023-07-18T10:35:30.041Z,952.3
2023-07-18T10:36:31.755Z,952.4
2023-07-18T10:37:33.947Z,952.3
2023-07-18T10:38:35.802Z,952.4
2023-07-18T10:39:37.537Z,952.3
2023-07-18T10:40:39.249Z,952.3
2023-07-18T10:41:41.078Z,952.3
2023-07-18T10:42:42.934Z,952.3
2023-07-18T10:43:44.633Z,952.3
2023-07-18T10:44:46.413Z,952.3
2023-07-18T10:45:48.858Z,952.3
2023-07-18T10:46:51.061Z,952.4
2023-07-18T10:47:53.350Z,952.3
2023-07-18T10:48:55.230Z,952.3
2023-07-18T10:49:57.063Z,952.3
2023-07-18T10:50:58.898Z,952.3
2023-07-18T10:52:00.593Z,952.3
2023-07-18T10:53:02.326Z,952.3
2023-07-18T10:54:04.143Z,952.3
2023-07-18T10:55:05.941Z,952.3
2023-07-18T10:56:07.687Z,952.3
2023-07-18T10:57:09.421Z,952.2
2023-07-18T10:58:11.106Z,952.3
2023-07-18T10:59:12.862Z,952.3
2023-07-18T11:00:14.674Z,952.3
2023-07-18T11:01:16.769Z,952.3
2023-07-18T11:02:19.230Z,952.3
2023-07-18T11:03:21.016Z,952.3
2023-07-18T11:04:23.340Z,952.3
2023-07-18T11:05:25.253Z,952.3
2023-07-18T11:06:26.975Z,952.3
2023-07-18T11:07:28.735Z,952.3
2023-07-18T11:08:30.504Z,952.3
2023-07-18T11:09:32.501Z,952.3
2023-07-18T11:10:34.256Z,952.3
2023-07-18T11:11:35.974Z,952.3
2023-07-18T11:12:38.293Z,952.3
2023-07-18T11:13:40.090Z,952.3
2023-07-18T11:14:41.854Z,952.3
2023-07-18T11:15:43.604Z,952.3
2023-07-18T11:16:45.714Z,952.3
2023-07-18T11:17:48.101Z,952.4
2023-07-18T11:18:49.982Z,952.4
2023-07-18T11:19:51.797Z,952.4
2023-07-18T11:20:53.667Z,952.4
2023-07-18T11:21:55.410Z,952.3
2023-07-18T11:22:57.332Z,952.4
2023-07-18T11:23:59.140Z,952.4
2023-07-18T11:25:00.995Z,952.4
2023-07-18T11:26:02.814Z,952.4
2023-07-18T11:27:04.509Z,952.4
2023-07-18T11:28:06.234Z,952.4
2023-07-18T11:29:08.029Z,952.4
2023-07-18T11:30:09.773Z,952.5
2023-07-18T11:31:39.339Z,952.4
2023-07-18T11:32:44.556Z,952.5
2023-07-18T11:33:46.385Z,952.4
2023-07-18T11:34:48.090Z,952.4
2023-07-18T11:35:49.849Z,952.4
2023-07-18T11:36:51.755Z,952.4
2023-07-18T11:37:53.673Z,952.4
2023-07-18T11:38:55.501Z,952.4
2023-07-18T11:39:57.299Z,952.3
2023-07-18T11:40:59.135Z,952.4
2023-07-18T11:42:00.897Z,952.4
2023-07-18T11:43:02.699Z,952.3
2023-07-18T11:44:04.422Z,952.3
2023-07-18T11:45:06.220Z,952.3
2023-07-18T11:46:07.970Z,952.3
2023-07-18T11:47:09.673Z,952.3
2023-07-18T11:48:11.783Z,952.3
2023-07-18T11:49:13.984Z,952.3
2023-07-18T11:50:15.754Z,952.3
2023-07-18T11:51:18.696Z,952.3
2023-07-18T11:52:23.673Z,952.3
2023-07-18T11:53:25.406Z,952.3
2023-07-18T11:54:27.198Z,952.3
2023-07-18T11:55:28.934Z,952.3
2023-07-18T11:56:30.768Z,952.3
2023-07-18T11:57:32.487Z,952.3
2023-07-18T11:58:34.243Z,952.3
2023-07-18T11:59:36.013Z,952.3
2023-07-18T12:00:37.735Z,952.3
2023-07-18T12:01:39.840Z,952.3
2023-07-18T12:02:41.890Z,952.3
2023-07-18T12:03:44.137Z,952.4
2023-07-18T12:04:46.316Z,952.4
2023-07-18T12:05:48.069Z,952.3
2023-07-18T12:06:49.893Z,952.3
2023-07-18T12:07:51.718Z,952.4
2023-07-18T12:08:53.422Z,952.3
2023-07-18T12:09:55.168Z,952.3
2023-07-18T12:11:10.236Z,952.3
2023-07-18T12:12:12.534Z,952.3
2023-07-18T12:13:14.408Z,952.3
2023-07-18T12:14:16.248Z,952.3
2023-07-18T12:15:17.992Z,952.3
2023-07-18T12:16:19.943Z,952.3
2023-07-18T12:17:22.174Z,952.3
2023-07-18T12:18:23.930Z,952.3
2023-07-18T12:19:25.640Z,952.3
2023-07-18T12:20:27.754Z,952.3
2023-07-18T12:21:29.767Z,952.3
2023-07-18T12:22:31.719Z,952.4
2023-07-18T12:23:33.646Z,952.4
2023-07-18T12:24:35.399Z,952.3
2023-07-18T12:25:37.242Z,952.3
2023-07-18T12:26:38.950Z,952.3
2023-07-18T12:27:40.719Z,952.3
2023-07-18T12:28:42.439Z,952.3
2023-07-18T12:29:44.172Z,952.3
2023-07-18T12:30:46.175Z,952.3
2023-07-18T12:31:48.511Z,952.3
2023-07-18T12:32:53.842Z,952.3
2023-07-18T12:33:56.053Z,952.3
2023-07-18T12:34:57.896Z,952.3
2023-07-18T12:35:59.758Z,952.3
2023-07-18T12:37:01.539Z,952.3
2023-07-18T12:38:03.344Z,952.3
2023-07-18T12:39:05.195Z,952.3
2023-07-18T12:40:07.056Z,952.3
2023-07-18T12:41:09.015Z,952.3
2023-07-18T12:42:10.744Z,952.3
2023-07-18T12:43:12.712Z,952.3
2023-07-18T12:44:14.498Z,952.3
2023-07-18T12:45:16.263Z,952.3
2023-07-18T12:46:20.081Z,952.3
2023-07-18T12:47:22.579Z,952.3
2023-07-18T12:48:24.376Z,952.3
2023-07-18T12:50:39.883Z,952.3
2023-07-18T12:51:41.711Z,952.3
2023-07-18T12:52:43.516Z,952.3
2023-07-18T12:53:45.302Z,952.3
2023-07-18T12:54:47.091Z,952.3
2023-07-18T12:55:48.851Z,952.3
2023-07-18T12:56:50.598Z,952.3
2023-07-18T12:57:52.337Z,952.3
2023-07-18T12:58:54.106Z,952.3
2023-07-18T12:59:55.873Z,952.3
2023-07-18T13:00:57.579Z,952.3
2023-07-18T13:01:59.526Z,952.3
2023-07-18T13:03:01.858Z,952.3
2023-07-18T13:04:06.699Z,952.3
2023-07-18T13:05:08.509Z,952.2
2023-07-18T13:06:10.246Z,952.2
2023-07-18T13:07:12.119Z,952.2
2023-07-18T13:08:13.930Z,952.2
2023-07-18T13:09:15.819Z,952.2
2023-07-18T13:10:17.623Z,952.2
2023-07-18T13:11:19.374Z,952.2
2023-07-18T13:12:21.164Z,952.2
2023-07-18T13:13:22.971Z,952.2
2023-07-18T13:14:24.686Z,952.2
2023-07-18T13:15:26.471Z,952.2
2023-07-18T13:16:28.295Z,952.2
2023-07-18T13:17:30.317Z,952.2
2023-07-18T13:18:32.154Z,952.1
2023-07-18T13:19:36.686Z,952.2
2023-07-18T13:20:38.426Z,952.2
2023-07-18T13:21:43.079Z,952.2
2023-07-18T13:22:45.087Z,952.2
2023-07-18T13:23:46.922Z,952.2
2023-07-18T13:24:48.742Z,952.2
2023-07-18T13:25:50.459Z,952.2
2023-07-18T13:26:52.347Z,952.2